»·PEaware :: FDX206 KSBP-KSNA

FDX206 :: KSBP-KSNA

FLIGHT INFORMATION

Flight Status: Arrived
Operator:
Federal Express
More flights by this operator :: More flights under this callsign
Pilot: Nick L. (7253)
Aircraft: BOEING 727-200
(B722)
More flights by this aircraft type
Origin: KSBP San Luis Co Regl
United States
Destination: KSNA John Wayne-Orange Co
United States
More flights between these airports :: More routes between these airports
Route: RZS VTU V208 SXC SLI
File this flight plan on PilotEdge
Remarks: RMK / SIMBRIEF
Altitude:
(Current/Filed)
11,000ft
Speed:
(Current/Filed)
310kts
Departed: 03-Feb-21 12:51 PM
Arrived: 03-Feb-21 01:36 PM
Distance/Time
Traveled:
166nm/0:45
Distance/Time
To Go:
Arrived

Flight Plot

Page will automatically refresh every two minutes.


Map Options




Map Legend


Flown Route
Filed Route
Departure Airport
Arrival Airport
Navaid (VOR, NDB)
Fix

Horizontal Profiles

Position Reports

Time Latitude Longitude Heading Altitude Ground
Speed
03-Feb-21 12:21 35.239186 -120.647301 29 172ft 0kts
03-Feb-21 12:22 35.239186 -120.647301 29 172ft 0kts
03-Feb-21 12:23 35.239186 -120.647301 29 172ft 0kts
03-Feb-21 12:24 35.239186 -120.647301 29 172ft 0kts
03-Feb-21 12:25 35.239186 -120.647301 29 172ft 0kts
03-Feb-21 12:26 35.239186 -120.647301 29 172ft 0kts
03-Feb-21 12:27 35.239186 -120.647301 29 172ft 0kts
03-Feb-21 12:28 35.239186 -120.647301 29 172ft 0kts
03-Feb-21 12:29 35.239186 -120.647301 29 172ft 0kts
03-Feb-21 12:30 35.239186 -120.647301 29 172ft 0kts
03-Feb-21 12:31 35.239186 -120.647301 29 172ft 0kts
03-Feb-21 12:32 35.239186 -120.647301 29 172ft 0kts
03-Feb-21 12:33 35.239186 -120.647301 29 172ft 0kts
03-Feb-21 12:34 35.239186 -120.647301 29 172ft 0kts
03-Feb-21 12:36 35.239186 -120.647301 29 172ft 0kts
03-Feb-21 12:37 35.239186 -120.647301 29 172ft 0kts
03-Feb-21 12:38 35.239186 -120.647301 29 172ft 0kts
03-Feb-21 12:39 35.239186 -120.647301 29 172ft 0kts
03-Feb-21 12:40 35.239186 -120.647301 29 172ft 0kts
03-Feb-21 12:41 35.239186 -120.647301 29 172ft 0kts
03-Feb-21 12:42 35.239186 -120.647301 29 172ft 0kts
03-Feb-21 12:43 35.239186 -120.647301 29 172ft 0kts
03-Feb-21 12:44 35.239186 -120.647301 29 172ft 0kts
03-Feb-21 12:45 35.239186 -120.647301 29 172ft 0kts
03-Feb-21 12:46 35.238516 -120.645321 123 181ft 17kts
03-Feb-21 12:47 35.237839 -120.640766 89 196ft 15kts
03-Feb-21 12:48 35.235799 -120.636129 128 214ft 6kts
03-Feb-21 12:49 35.233955 -120.632920 128 220ft 13kts
03-Feb-21 12:50 35.232889 -120.633002 305 219ft 0kts
03-Feb-21 12:51 35.247137 -120.659461 302 1064ft 136kts
03-Feb-21 12:51 35.269474 -120.702820 302 2671ft 212kts
03-Feb-21 12:53 35.312493 -120.784244 302 7139ft 250kts
03-Feb-21 12:53 35.347946 -120.848762 302 8037ft 262kts
03-Feb-21 12:54 35.388265 -120.921209 302 8060ft 243kts
03-Feb-21 12:56 35.351323 -120.973622 154 8063ft 285kts
03-Feb-21 12:56 35.300181 -120.909035 134 10027ft 320kts
03-Feb-21 12:57 35.230961 -120.819705 138 11038ft 395kts
03-Feb-21 12:58 35.147762 -120.717296 136 11031ft 430kts
03-Feb-21 12:59 35.063125 -120.601124 131 11022ft 455kts
03-Feb-21 13:00 34.983838 -120.473503 127 11009ft 462kts
03-Feb-21 13:01 34.905762 -120.343083 129 11009ft 462kts
03-Feb-21 13:02 34.822171 -120.218840 133 10997ft 455kts
03-Feb-21 13:03 34.737949 -120.102083 133 10980ft 441kts
03-Feb-21 13:04 34.657541 -119.986937 132 10980ft 432kts
03-Feb-21 13:05 34.579484 -119.872422 131 10963ft 425kts
03-Feb-21 13:06 34.497830 -119.764854 142 10953ft 417kts
03-Feb-21 13:07 34.405951 -119.673456 142 10954ft 415kts
03-Feb-21 13:08 34.317029 -119.577697 139 10950ft 415kts
03-Feb-21 13:09 34.234597 -119.474313 130 10944ft 415kts
03-Feb-21 13:10 34.159184 -119.362683 132 10945ft 414kts
03-Feb-21 13:11 34.078714 -119.257549 137 10945ft 412kts
03-Feb-21 13:12 33.992509 -119.159718 138 10941ft 413kts
03-Feb-21 13:13 33.909648 -119.057172 135 10945ft 415kts
03-Feb-21 13:14 33.826400 -118.954145 137 10942ft 416kts
03-Feb-21 13:15 33.741471 -118.852709 138 10939ft 417kts
03-Feb-21 13:16 33.661391 -118.747867 114 10939ft 406kts
03-Feb-21 13:17 33.637696 -118.624153 102 10874ft 329kts
03-Feb-21 13:18 33.621093 -118.519940 102 8959ft 306kts
03-Feb-21 13:19 33.604005 -118.417222 102 7588ft 300kts
03-Feb-21 13:20 33.588160 -118.317623 88 6247ft 292kts
03-Feb-21 13:21 33.596529 -118.219277 83 5084ft 279kts
03-Feb-21 13:22 33.607765 -118.125756 83 5006ft 274kts
03-Feb-21 13:23 33.646506 -118.051708 32 5008ft 270kts
03-Feb-21 13:24 33.709579 -118.000546 36 5011ft 267kts
03-Feb-21 13:25 33.770192 -117.946149 36 5014ft 267kts
03-Feb-21 13:26 33.831549 -117.890970 36 5014ft 274kts
03-Feb-21 13:27 33.893436 -117.835735 36 5001ft 255kts
03-Feb-21 13:28 33.914635 -117.769956 107 4670ft 189kts
03-Feb-21 13:29 33.870343 -117.760014 191 3277ft 180kts
03-Feb-21 13:30 33.824013 -117.775552 202 2978ft 172kts
03-Feb-21 13:31 33.778038 -117.802678 209 2208ft 172kts
03-Feb-21 13:32 33.742537 -117.826350 209 1450ft 127kts
03-Feb-21 13:33 33.712282 -117.845716 207 775ft 121kts
03-Feb-21 13:34 33.681788 -117.865012 206 112ft 123kts
03-Feb-21 13:35 33.667907 -117.873520 157 68ft 10kts
03-Feb-21 13:36 33.667834 -117.872272 40 68ft 13kts
03-Feb-21 13:37 33.672287 -117.867102 71 68ft 12kts

Navigation Log

Ident Type
Flight plan parsing failed, navigation log unavailable